Terminal Aerodrome Forecast
Issued by NWS Sioux Falls, SD

Home | Current Version | Previous Version | Text Only | Print | Product List | Glossary On
Versions: 1 2 3 4 5 6 7 8 9 10 11 12 13 14 15
923
FTUS43 KFSD 212320
TAFHON
TAF
KHON 212320Z 2200/2224 14009KT P6SM FEW050
     FM221400 16013G19KT P6SM FEW120
     FM221800 19016G27KT P6SM FEW120
     FM222200 23013G19KT P6SM SCT120=

USA.gov is the U.S. government's official web portal to all federal, state and local government web resources and services.